Time;durP1;ratioP1;P1;durP2;ratioP2;P2;SDS_P1;SDS_P2;PMS_P1;PMS_P2;Temp;Humidity;BMP_temperature;BMP_pressure;BME280_temperature;BME280_humidity;BME280_pressure;Samples;Min_cycle;Max_cycle;Signal;HPM_P1;HPM_P2
2023/04/24 00:01:14;;;;;;;10.60;9.35;;;8.90;99.90;;;;;;4946716;28;20082;-62
2023/04/24 00:03:41;;;;;;;12.05;8.50;;;8.90;99.90;;;;;;4927723;28;20055;-64
2023/04/24 00:06:09;;;;;;;8.80;8.00;;;8.90;99.90;;;;;;4943494;28;20134;-65
2023/04/24 00:08:36;;;;;;;10.65;8.55;;;9.00;99.90;;;;;;4943467;28;20082;-68
2023/04/24 00:11:03;;;;;;;12.40;9.95;;;9.00;99.90;;;;;;4946376;28;20110;-72
2023/04/24 00:13:30;;;;;;;10.00;8.98;;;9.00;99.90;;;;;;4947542;28;20075;-62
2023/04/24 00:15:57;;;;;;;10.10;9.10;;;9.00;99.90;;;;;;4946549;28;20736;-64
2023/04/24 00:18:24;;;;;;;11.30;8.73;;;9.00;99.90;;;;;;4943832;28;20142;-66
2023/04/24 00:20:50;;;;;;;10.70;9.68;;;9.00;99.90;;;;;;4939520;28;20753;-64
2023/04/24 00:23:17;;;;;;;15.90;10.90;;;8.90;99.90;;;;;;4930657;28;20130;-71
2023/04/24 00:25:44;;;;;;;11.20;10.05;;;8.80;99.90;;;;;;4921991;29;20056;-67
2023/04/24 00:28:11;;;;;;;11.55;10.07;;;8.70;99.90;;;;;;4940706;28;20493;-63
2023/04/24 00:30:38;;;;;;;12.75;11.13;;;8.60;99.90;;;;;;4944940;28;20059;-71
2023/04/24 00:33:05;;;;;;;12.80;11.52;;;8.50;99.90;;;;;;4941697;29;20130;-66
2023/04/24 00:35:32;;;;;;;15.68;12.35;;;8.30;99.90;;;;;;4954330;28;20048;-63
2023/04/24 00:37:58;;;;;;;12.85;10.70;;;8.30;99.90;;;;;;4948836;28;20043;-64
2023/04/24 00:40:26;;;;;;;11.30;10.10;;;8.30;99.90;;;;;;4931557;28;20061;-64
2023/04/24 00:42:53;;;;;;;11.90;10.73;;;8.30;99.90;;;;;;4953897;28;20081;-62
2023/04/24 00:45:20;;;;;;;14.10;12.07;;;8.20;99.90;;;;;;4952824;28;20503;-68
2023/04/24 00:47:48;;;;;;;11.43;9.70;;;8.20;99.90;;;;;;4936909;28;20059;-65
2023/04/24 00:50:15;;;;;;;14.07;11.45;;;8.10;99.90;;;;;;4927629;28;20053;-66
2023/04/24 00:52:42;;;;;;;11.15;9.68;;;8.10;99.90;;;;;;4942828;28;20928;-66
2023/04/24 00:55:09;;;;;;;10.18;8.88;;;8.10;99.90;;;;;;4954237;28;20059;-67
2023/04/24 00:57:37;;;;;;;10.57;9.13;;;8.10;99.90;;;;;;4960708;28;20153;-71
2023/04/24 01:00:07;;;;;;;10.75;9.75;;;8.00;99.90;;;;;;4950434;28;20051;-63
2023/04/24 01:02:34;;;;;;;9.75;8.55;;;8.00;99.90;;;;;;4942926;28;20058;-67
2023/04/24 01:05:01;;;;;;;9.68;8.77;;;8.00;99.90;;;;;;4950698;28;20149;-64
2023/04/24 01:07:29;;;;;;;11.02;8.95;;;7.90;99.90;;;;;;4957886;28;20058;-67
2023/04/24 01:09:56;;;;;;;11.50;8.75;;;7.90;99.90;;;;;;4943594;28;20069;-64
2023/04/24 01:12:24;;;;;;;9.00;8.10;;;7.90;99.90;;;;;;4947718;28;20039;-67
2023/04/24 01:14:51;;;;;;;8.77;7.97;;;7.80;99.90;;;;;;4940049;29;20055;-64
2023/04/24 01:17:18;;;;;;;8.00;6.10;;;7.80;99.90;;;;;;4945873;28;20138;-66
2023/04/24 01:19:46;;;;;;;12.63;8.07;;;7.80;99.90;;;;;;4945033;28;20519;-67
2023/04/24 01:22:15;;;;;;;7.55;6.75;;;7.80;99.90;;;;;;4941633;28;20445;-76
2023/04/24 01:24:42;;;;;;;7.70;7.00;;;7.80;99.90;;;;;;4945111;28;20070;-71
2023/04/24 01:27:12;;;;;;;7.70;7.00;;;7.80;99.90;;;;;;4949219;28;20055;-65
2023/04/24 01:29:39;;;;;;;8.32;7.45;;;7.70;99.90;;;;;;4961740;28;20528;-64
2023/04/24 01:32:09;;;;;;;8.80;7.22;;;7.70;99.90;;;;;;4927417;28;20070;-66
2023/04/24 01:34:37;;;;;;;7.88;7.07;;;7.60;99.90;;;;;;4939326;28;20050;-63
2023/04/24 01:37:05;;;;;;;8.48;7.57;;;7.60;99.90;;;;;;4949322;28;20476;-66
2023/04/24 01:39:33;;;;;;;8.30;7.60;;;7.60;99.90;;;;;;4953868;28;20158;-62
2023/04/24 01:42:02;;;;;;;8.68;7.78;;;7.50;99.90;;;;;;4943520;28;20047;-67
2023/04/24 01:44:29;;;;;;;8.63;7.80;;;7.50;99.90;;;;;;4950764;28;20086;-65
2023/04/24 01:46:56;;;;;;;8.27;7.47;;;7.40;99.90;;;;;;4937603;28;20054;-64
2023/04/24 01:49:23;;;;;;;9.85;8.85;;;7.50;99.90;;;;;;4926299;29;20067;-66
2023/04/24 01:51:50;;;;;;;9.30;7.95;;;7.40;99.90;;;;;;4928821;29;20135;-68
2023/04/24 01:54:17;;;;;;;14.43;8.15;;;7.40;99.90;;;;;;4943464;28;20146;-67
2023/04/24 01:56:45;;;;;;;9.48;8.52;;;7.40;99.90;;;;;;4949360;28;20593;-62
2023/04/24 01:59:12;;;;;;;10.27;9.23;;;7.40;99.90;;;;;;4964198;28;20365;-66
2023/04/24 02:01:39;;;;;;;12.10;8.75;;;7.40;99.90;;;;;;4946429;28;20075;-67
2023/04/24 02:04:07;;;;;;;10.38;8.82;;;7.40;99.90;;;;;;4947152;28;20420;-64
2023/04/24 02:06:35;;;;;;;10.35;9.32;;;7.40;99.90;;;;;;4945348;28;20057;-69
2023/04/24 02:09:03;;;;;;;9.73;8.60;;;7.40;99.90;;;;;;4947542;28;20062;-65
2023/04/24 02:11:30;;;;;;;9.38;8.48;;;7.40;99.90;;;;;;4947642;28;20090;-63
2023/04/24 02:13:57;;;;;;;12.15;8.85;;;7.40;99.90;;;;;;4965330;28;20063;-62
2023/04/24 02:16:24;;;;;;;10.85;9.70;;;7.40;99.90;;;;;;4954176;28;20055;-63
2023/04/24 02:18:51;;;;;;;10.90;9.80;;;7.40;99.90;;;;;;4958726;28;20588;-67
2023/04/24 02:21:18;;;;;;;10.00;9.00;;;7.40;99.90;;;;;;4950948;28;20063;-64
2023/04/24 02:23:45;;;;;;;13.88;9.57;;;7.40;99.90;;;;;;4947702;28;20538;-74
2023/04/24 02:26:12;;;;;;;10.32;9.23;;;7.40;99.90;;;;;;4941710;28;20047;-70
2023/04/24 02:28:39;;;;;;;9.52;8.63;;;7.40;99.90;;;;;;4946477;28;20051;-65
2023/04/24 02:31:06;;;;;;;10.35;9.35;;;7.40;99.90;;;;;;4946861;28;20117;-64
2023/04/24 02:33:33;;;;;;;11.40;9.60;;;7.40;99.90;;;;;;4942621;28;20189;-69
2023/04/24 02:36:01;;;;;;;10.45;8.75;;;7.50;99.90;;;;;;4941155;28;20074;-67
2023/04/24 02:38:28;;;;;;;9.27;8.13;;;7.50;99.90;;;;;;4945049;28;20043;-66
2023/04/24 02:40:55;;;;;;;11.35;9.80;;;7.50;99.90;;;;;;4939622;28;20419;-61
2023/04/24 02:43:22;;;;;;;10.02;9.02;;;7.50;99.90;;;;;;4941360;28;20159;-66
2023/04/24 02:45:50;;;;;;;9.43;8.40;;;7.50;99.90;;;;;;4961955;28;20142;-67
2023/04/24 02:48:17;;;;;;;11.80;9.05;;;7.60;99.90;;;;;;4943712;28;20074;-67
2023/04/24 02:50:44;;;;;;;9.82;8.82;;;7.60;99.90;;;;;;4944255;28;20054;-66
2023/04/24 02:53:11;;;;;;;9.52;8.50;;;7.60;99.90;;;;;;4954146;28;20142;-61
2023/04/24 02:55:37;;;;;;;10.68;8.75;;;7.60;99.90;;;;;;4945849;28;20051;-66
2023/04/24 02:58:05;;;;;;;11.38;10.27;;;7.60;99.90;;;;;;4962264;28;20067;-65
2023/04/24 03:00:32;;;;;;;10.85;9.48;;;7.60;99.90;;;;;;4946407;28;20075;-66
2023/04/24 03:02:59;;;;;;;9.32;8.38;;;7.60;99.90;;;;;;4944260;28;20051;-62
2023/04/24 03:05:27;;;;;;;13.75;10.20;;;7.70;99.90;;;;;;4947802;28;20058;-65
2023/04/24 03:07:54;;;;;;;12.38;9.05;;;7.70;99.90;;;;;;4958507;28;20064;-62
2023/04/24 03:10:22;;;;;;;12.82;9.88;;;7.70;99.90;;;;;;4950607;28;20126;-64
2023/04/24 03:12:49;;;;;;;10.60;9.05;;;7.70;99.90;;;;;;4939830;28;20052;-62
2023/04/24 03:15:18;;;;;;;11.23;10.13;;;7.70;99.90;;;;;;4949726;28;20126;-62
2023/04/24 03:17:45;;;;;;;12.60;11.07;;;7.70;99.90;;;;;;4933240;28;20061;-62
2023/04/24 03:20:12;;;;;;;13.38;10.57;;;7.70;99.90;;;;;;4923778;29;20533;-65
2023/04/24 03:22:39;;;;;;;13.90;10.45;;;7.70;99.90;;;;;;4943296;28;20425;-68
2023/04/24 03:25:09;;;;;;;14.88;12.10;;;7.70;99.90;;;;;;4945561;28;20150;-64
2023/04/24 03:27:37;;;;;;;14.10;10.00;;;7.70;99.90;;;;;;4945635;28;20485;-68
2023/04/24 03:30:19;;;;;;;11.43;9.15;;;7.70;99.90;;;;;;4944297;28;20071;-63
2023/04/24 03:32:51;;;;;;;12.13;10.68;;;7.70;99.90;;;;;;4963312;28;20075;-74
2023/04/24 03:35:23;;;;;;;10.57;9.48;;;7.70;99.90;;;;;;4962890;28;20043;-61
2023/04/24 03:37:51;;;;;;;12.75;10.75;;;7.70;99.90;;;;;;4947261;28;20138;-62
2023/04/24 03:40:46;;;;;;;11.02;9.88;;;7.70;99.90;;;;;;4962305;28;20059;-64
2023/04/24 03:43:27;;;;;;;9.80;8.50;;;7.70;99.90;;;;;;4961922;28;20050;-62
2023/04/24 03:45:56;;;;;;;12.90;9.07;;;7.70;99.90;;;;;;4951957;28;20066;-65
2023/04/24 03:48:24;;;;;;;10.00;9.10;;;7.60;99.90;;;;;;4959792;28;20146;-63
2023/04/24 03:50:51;;;;;;;11.32;10.13;;;7.60;99.90;;;;;;4943836;28;20586;-62
2023/04/24 03:53:19;;;;;;;12.57;11.35;;;7.60;99.90;;;;;;4961484;28;20110;-69
2023/04/24 03:55:46;;;;;;;9.98;9.00;;;7.50;99.90;;;;;;4961861;28;20058;-62
2023/04/24 03:58:14;;;;;;;10.00;9.00;;;7.50;99.90;;;;;;4950795;28;20070;-72
2023/04/24 04:00:41;;;;;;;16.60;11.00;;;7.50;99.90;;;;;;4942500;28;20835;-65
2023/04/24 04:03:30;;;;;;;9.13;8.23;;;7.50;99.90;;;;;;4949165;28;20039;-62
2023/04/24 04:05:58;;;;;;;11.48;9.50;;;7.50;99.90;;;;;;4945442;28;20061;-66
2023/04/24 04:08:25;;;;;;;12.90;9.25;;;7.50;99.90;;;;;;4952325;28;20125;-70
2023/04/24 04:10:52;;;;;;;10.30;9.10;;;7.40;99.90;;;;;;4947038;28;20047;-65
2023/04/24 04:13:19;;;;;;;10.35;9.18;;;7.50;99.90;;;;;;4951734;28;20178;-62
2023/04/24 04:15:46;;;;;;;14.02;10.52;;;7.40;99.90;;;;;;4948045;28;20655;-70
2023/04/24 04:18:13;;;;;;;10.05;8.10;;;7.50;99.90;;;;;;4945015;28;20054;-65
2023/04/24 04:20:40;;;;;;;16.63;9.68;;;7.50;99.90;;;;;;4948637;28;20051;-63
2023/04/24 04:23:08;;;;;;;10.50;9.45;;;7.50;99.90;;;;;;4958764;28;20055;-69
2023/04/24 04:25:49;;;;;;;15.65;9.05;;;7.50;99.90;;;;;;4949386;28;20093;-65
2023/04/24 04:28:21;;;;;;;18.02;9.63;;;7.60;99.90;;;;;;4956869;28;20250;-66
2023/04/24 04:30:49;;;;;;;15.55;9.43;;;7.60;99.90;;;;;;4957660;28;20047;-62
2023/04/24 04:33:16;;;;;;;11.02;9.35;;;7.60;99.90;;;;;;4938556;28;20060;-70
2023/04/24 04:35:43;;;;;;;12.05;9.38;;;7.60;99.90;;;;;;4942343;29;20066;-63
2023/04/24 04:38:11;;;;;;;18.30;11.90;;;7.60;99.90;;;;;;4940498;28;20052;-74
2023/04/24 04:40:43;;;;;;;15.00;9.00;;;7.60;99.90;;;;;;4940944;28;20139;-62
2023/04/24 04:43:13;;;;;;;11.88;9.25;;;7.70;99.90;;;;;;4947547;28;20141;-66
2023/04/24 04:45:45;;;;;;;11.60;9.60;;;7.70;99.90;;;;;;4947851;28;20085;-64
2023/04/24 04:48:28;;;;;;;16.90;10.50;;;7.70;99.90;;;;;;4943390;28;20064;-67
2023/04/24 04:50:58;;;;;;;17.98;9.55;;;7.70;99.90;;;;;;4944241;28;20058;-74
2023/04/24 04:53:26;;;;;;;11.23;9.32;;;7.70;99.90;;;;;;4949653;28;20055;-65
2023/04/24 04:55:52;;;;;;;15.15;10.85;;;7.70;99.90;;;;;;4947456;28;20059;-74
2023/04/24 04:58:23;;;;;;;12.52;8.55;;;7.70;99.90;;;;;;4945595;28;20369;-63
2023/04/24 05:00:55;;;;;;;16.95;9.10;;;7.70;99.90;;;;;;4948963;28;20143;-68
2023/04/24 05:03:32;;;;;;;10.98;8.10;;;7.70;99.90;;;;;;4949682;28;20567;-62
2023/04/24 05:06:04;;;;;;;14.73;9.50;;;7.70;99.90;;;;;;4926990;28;20154;-66
2023/04/24 05:08:34;;;;;;;17.90;10.07;;;7.70;99.90;;;;;;4950016;28;20087;-73
2023/04/24 05:11:02;;;;;;;21.30;10.80;;;7.70;99.90;;;;;;4953902;28;20058;-67
2023/04/24 05:13:30;;;;;;;18.60;10.18;;;7.70;99.90;;;;;;4942792;28;20047;-62
2023/04/24 05:16:14;;;;;;;13.65;9.80;;;7.70;99.90;;;;;;4941347;28;20580;-65
2023/04/24 05:18:41;;;;;;;21.27;11.38;;;7.70;99.90;;;;;;4942305;29;20507;-63
2023/04/24 05:21:11;;;;;;;13.55;10.27;;;7.80;99.90;;;;;;4960861;28;20540;-73
2023/04/24 05:23:41;;;;;;;13.68;10.93;;;7.80;99.90;;;;;;4965076;28;20079;-64
2023/04/24 05:26:07;;;;;;;16.33;9.55;;;7.80;99.90;;;;;;4946694;28;20062;-66
2023/04/24 05:28:36;;;;;;;12.25;10.60;;;7.90;99.90;;;;;;4949738;28;20059;-68
2023/04/24 05:31:07;;;;;;;19.10;11.30;;;7.90;99.90;;;;;;4964206;28;20078;-63
2023/04/24 05:33:34;;;;;;;16.73;12.98;;;8.00;99.90;;;;;;4964635;28;20455;-69
2023/04/24 05:36:02;;;;;;;15.13;11.35;;;8.00;99.90;;;;;;4964108;28;20091;-63
2023/04/24 05:38:28;;;;;;;15.52;11.00;;;8.10;99.90;;;;;;4960125;28;20055;-62
2023/04/24 05:40:55;;;;;;;22.58;15.25;;;8.10;99.90;;;;;;4945324;28;20059;-70
2023/04/24 05:43:22;;;;;;;15.38;11.95;;;8.10;99.90;;;;;;4945773;28;20059;-65
2023/04/24 05:45:49;;;;;;;20.15;13.43;;;8.10;99.90;;;;;;4947060;28;20047;-64
2023/04/24 05:48:17;;;;;;;18.85;12.27;;;8.20;99.90;;;;;;4945643;28;20047;-69
2023/04/24 05:50:44;;;;;;;17.08;12.82;;;8.30;99.90;;;;;;4947770;28;20161;-63
2023/04/24 05:53:11;;;;;;;18.80;15.38;;;8.30;99.90;;;;;;4961912;28;20165;-67
2023/04/24 05:55:38;;;;;;;18.13;14.00;;;8.40;99.90;;;;;;4963265;28;20436;-64
2023/04/24 05:58:05;;;;;;;20.58;14.82;;;8.40;99.90;;;;;;4943512;28;20058;-68
2023/04/24 06:00:35;;;;;;;28.38;13.73;;;8.40;99.90;;;;;;4947636;28;20063;-64
2023/04/24 06:03:06;;;;;;;14.82;11.07;;;8.40;99.90;;;;;;4960117;28;20107;-63
2023/04/24 06:05:34;;;;;;;14.63;11.05;;;8.40;99.90;;;;;;4960346;28;20189;-64
2023/04/24 06:08:02;;;;;;;15.15;11.23;;;8.50;99.90;;;;;;4939968;28;20069;-64
2023/04/24 06:10:33;;;;;;;22.42;13.38;;;8.50;99.90;;;;;;4955901;28;20058;-69
2023/04/24 06:13:01;;;;;;;28.02;12.73;;;8.50;99.90;;;;;;4950637;28;20158;-67
2023/04/24 06:15:32;;;;;;;58.67;15.43;;;8.60;99.90;;;;;;4962209;28;20579;-62
2023/04/24 06:18:17;;;;;;;56.17;16.02;;;8.60;99.90;;;;;;4958849;28;20450;-64
2023/04/24 06:20:45;;;;;;;68.85;18.35;;;8.60;99.90;;;;;;4962744;28;20695;-66
2023/04/24 06:23:12;;;;;;;40.20;13.85;;;8.60;99.90;;;;;;4946908;28;20093;-68
2023/04/24 06:25:39;;;;;;;43.00;16.92;;;8.70;99.90;;;;;;4948482;28;20047;-62
2023/04/24 06:28:06;;;;;;;45.72;13.32;;;8.80;99.90;;;;;;4941888;28;20107;-65
2023/04/24 06:30:33;;;;;;;37.28;14.45;;;8.90;99.90;;;;;;4950780;28;20059;-71
2023/04/24 06:33:00;;;;;;;32.65;11.75;;;9.00;99.90;;;;;;4946785;28;20098;-63
2023/04/24 06:35:44;;;;;;;50.63;15.43;;;8.90;99.90;;;;;;4946542;28;20047;-63
2023/04/24 06:38:11;;;;;;;30.50;12.20;;;8.90;99.90;;;;;;4941256;28;20077;-66
2023/04/24 06:40:38;;;;;;;24.55;11.70;;;9.00;99.90;;;;;;4942759;28;20059;-63
2023/04/24 06:43:06;;;;;;;42.78;15.82;;;9.00;99.90;;;;;;4941615;28;20595;-65
2023/04/24 06:45:32;;;;;;;44.58;13.93;;;9.10;99.90;;;;;;4942371;28;20556;-62
2023/04/24 06:47:59;;;;;;;37.20;13.32;;;9.10;99.90;;;;;;4936538;28;20508;-66
2023/04/24 06:50:26;;;;;;;32.63;13.35;;;9.10;99.90;;;;;;4933865;29;20083;-67
2023/04/24 06:52:53;;;;;;;61.45;14.73;;;9.10;99.90;;;;;;4936622;28;20051;-63
2023/04/24 06:55:20;;;;;;;35.90;14.10;;;9.20;99.90;;;;;;4948586;28;20082;-64
2023/04/24 06:57:47;;;;;;;24.48;13.23;;;9.10;99.90;;;;;;4948067;28;20062;-64
2023/04/24 07:00:14;;;;;;;14.63;10.15;;;9.20;99.90;;;;;;4938869;28;20051;-68
2023/04/24 07:02:41;;;;;;;50.08;13.93;;;9.40;99.90;;;;;;4939720;28;20500;-63
2023/04/24 07:05:08;;;;;;;15.77;11.77;;;9.40;99.90;;;;;;4925711;29;20055;-66
2023/04/24 07:07:37;;;;;;;13.32;8.82;;;9.50;99.90;;;;;;4925976;28;20071;-66
2023/04/24 07:10:05;;;;;;;15.75;9.45;;;9.40;99.90;;;;;;4942064;28;20114;-68
2023/04/24 07:12:32;;;;;;;14.52;10.02;;;9.40;99.90;;;;;;4945151;28;20493;-70
2023/04/24 07:15:00;;;;;;;22.45;12.48;;;9.30;99.90;;;;;;4942404;28;20055;-65
2023/04/24 07:17:27;;;;;;;13.07;9.93;;;9.40;99.90;;;;;;4942633;28;20058;-65
2023/04/24 07:19:54;;;;;;;15.63;9.63;;;9.40;99.90;;;;;;4944518;28;20047;-72
2023/04/24 07:22:21;;;;;;;11.95;8.60;;;9.40;99.90;;;;;;4944797;28;20055;-64
2023/04/24 07:24:48;;;;;;;11.32;8.75;;;9.50;99.90;;;;;;4963797;28;20575;-69
2023/04/24 07:27:15;;;;;;;11.20;9.63;;;9.50;99.90;;;;;;4946028;28;20068;-69
2023/04/24 07:29:42;;;;;;;12.68;10.10;;;9.60;99.90;;;;;;4942531;28;20613;-62
2023/04/24 07:32:10;;;;;;;10.75;9.63;;;9.60;99.90;;;;;;4943676;28;20142;-66
2023/04/24 07:34:37;;;;;;;14.98;10.63;;;9.70;99.90;;;;;;4946134;28;20405;-71
2023/04/24 07:37:04;;;;;;;13.07;9.45;;;9.80;99.90;;;;;;4944661;28;20444;-66
2023/04/24 07:39:31;;;;;;;11.18;9.93;;;10.00;99.90;;;;;;4942606;28;20056;-66
2023/04/24 07:41:59;;;;;;;12.13;9.65;;;10.10;99.90;;;;;;4938811;28;20056;-64
2023/04/24 07:44:26;;;;;;;11.90;9.90;;;10.00;99.90;;;;;;4942724;28;20118;-65
2023/04/24 07:46:53;;;;;;;15.07;11.43;;;10.00;99.90;;;;;;4946443;28;20545;-68
2023/04/24 07:49:20;;;;;;;15.43;10.70;;;10.00;99.90;;;;;;4928799;28;20769;-63
2023/04/24 07:51:47;;;;;;;11.90;10.07;;;10.00;99.90;;;;;;4919416;29;20195;-69
2023/04/24 07:54:14;;;;;;;22.63;11.93;;;10.30;99.90;;;;;;4943481;28;20069;-67
2023/04/24 07:56:42;;;;;;;24.33;11.98;;;10.20;99.90;;;;;;4940523;28;20513;-63
2023/04/24 07:59:10;;;;;;;15.43;12.30;;;10.20;99.90;;;;;;4941057;28;20436;-64
2023/04/24 08:01:38;;;;;;;14.27;9.45;;;10.00;99.90;;;;;;4943884;28;20039;-68
2023/04/24 08:04:04;;;;;;;30.30;12.52;;;10.00;99.90;;;;;;4938659;28;20426;-65
2023/04/24 08:06:32;;;;;;;17.35;12.18;;;9.80;99.90;;;;;;4926915;28;20134;-68
2023/04/24 08:09:00;;;;;;;14.00;11.38;;;9.70;99.90;;;;;;4943455;28;20081;-67
2023/04/24 08:11:27;;;;;;;13.27;11.13;;;9.50;99.90;;;;;;4941671;28;20481;-65
2023/04/24 08:13:54;;;;;;;14.25;10.30;;;9.50;99.90;;;;;;4935450;28;20052;-65
2023/04/24 08:16:23;;;;;;;14.45;10.70;;;9.60;99.90;;;;;;4943854;28;20436;-70
2023/04/24 08:18:51;;;;;;;13.75;9.55;;;9.60;99.90;;;;;;4940243;28;20058;-68
2023/04/24 08:21:18;;;;;;;18.05;10.48;;;9.60;99.90;;;;;;4935275;28;20058;-68
2023/04/24 08:23:46;;;;;;;14.30;10.98;;;9.70;99.90;;;;;;4924031;29;20358;-69
2023/04/24 08:26:13;;;;;;;14.00;11.20;;;9.60;99.90;;;;;;4938846;28;20153;-65
2023/04/24 08:28:40;;;;;;;16.80;12.18;;;9.60;99.90;;;;;;4930750;28;20114;-63
2023/04/24 08:31:07;;;;;;;17.70;10.65;;;9.50;99.90;;;;;;4946337;28;20142;-62
2023/04/24 08:33:34;;;;;;;12.90;11.50;;;9.50;99.90;;;;;;4940773;28;20122;-66
2023/04/24 08:36:05;;;;;;;20.73;12.85;;;9.50;99.90;;;;;;4942355;28;20580;-69
2023/04/24 08:38:33;;;;;;;13.70;10.05;;;9.50;99.90;;;;;;4941730;28;20067;-73
2023/04/24 08:41:01;;;;;;;13.73;11.35;;;9.60;99.90;;;;;;4938753;28;20055;-68
2023/04/24 08:43:28;;;;;;;12.85;10.43;;;9.80;99.90;;;;;;4942526;28;20051;-63
2023/04/24 08:45:56;;;;;;;14.00;9.80;;;10.00;99.90;;;;;;4943334;28;20065;-70
2023/04/24 08:48:24;;;;;;;13.35;9.93;;;10.10;99.90;;;;;;4927211;28;20172;-74
2023/04/24 08:50:58;;;;;;;10.77;9.35;;;10.10;99.90;;;;;;4939087;28;20074;-61
2023/04/24 08:53:26;;;;;;;15.27;10.82;;;10.10;99.90;;;;;;4941528;28;20059;-63
2023/04/24 08:55:55;;;;;;;16.17;10.30;;;10.10;99.90;;;;;;4938323;28;20074;-64
2023/04/24 08:58:26;;;;;;;14.07;10.15;;;10.20;99.90;;;;;;4940066;28;20162;-63
2023/04/24 09:00:57;;;;;;;13.82;10.82;;;10.20;99.90;;;;;;4942463;28;20059;-67
2023/04/24 09:03:26;;;;;;;13.30;10.52;;;10.00;99.90;;;;;;4938515;28;20519;-66
2023/04/24 09:05:55;;;;;;;13.52;9.98;;;10.00;99.90;;;;;;4945723;28;20058;-63
2023/04/24 09:08:25;;;;;;;13.23;10.70;;;10.10;99.90;;;;;;4939458;28;20047;-64
2023/04/24 09:10:52;;;;;;;13.13;10.00;;;10.00;99.90;;;;;;4946595;28;20075;-63
2023/04/24 09:13:20;;;;;;;14.95;11.82;;;9.90;99.90;;;;;;4940746;28;20733;-68
2023/04/24 09:15:47;;;;;;;15.85;11.80;;;9.80;99.90;;;;;;4943450;28;20052;-63
2023/04/24 09:18:14;;;;;;;16.40;10.80;;;9.80;99.90;;;;;;4942109;28;23973;-65
2023/04/24 09:21:02;;;;;;;17.23;12.10;;;9.80;99.90;;;;;;4942818;28;20532;-68
2023/04/24 09:23:30;;;;;;;19.83;11.00;;;9.90;99.90;;;;;;4944194;28;20114;-67
2023/04/24 09:25:59;;;;;;;17.10;11.77;;;10.00;99.90;;;;;;4942508;28;20059;-65
2023/04/24 09:28:30;;;;;;;15.48;11.18;;;10.00;99.90;;;;;;4945327;28;20051;-66
2023/04/24 09:31:04;;;;;;;16.45;12.23;;;10.10;99.90;;;;;;4940595;28;20119;-66
2023/04/24 09:33:31;;;;;;;16.58;12.15;;;10.10;99.90;;;;;;4939914;28;20500;-69
2023/04/24 09:35:59;;;;;;;22.05;13.70;;;10.10;99.90;;;;;;4943754;28;20083;-64
2023/04/24 09:38:36;;;;;;;18.75;11.35;;;10.10;99.90;;;;;;4943971;28;20059;-66
2023/04/24 09:41:07;;;;;;;13.73;11.82;;;10.10;99.90;;;;;;4942256;28;20134;-69
2023/04/24 09:43:35;;;;;;;13.35;11.82;;;10.10;99.90;;;;;;4943271;28;20047;-68
2023/04/24 09:46:08;;;;;;;17.30;12.52;;;10.00;99.90;;;;;;4943071;28;20050;-65
2023/04/24 09:48:36;;;;;;;17.35;12.00;;;10.10;99.90;;;;;;4939963;28;20083;-62
2023/04/24 09:51:11;;;;;;;14.13;11.23;;;10.30;99.90;;;;;;4939441;28;20150;-67
2023/04/24 09:53:39;;;;;;;17.40;12.10;;;10.40;99.90;;;;;;4942934;28;20057;-66
2023/04/24 09:56:12;;;;;;;13.90;11.25;;;10.50;99.90;;;;;;4952001;28;20059;-64
2023/04/24 09:58:39;;;;;;;16.92;10.73;;;10.50;99.90;;;;;;4937514;28;20054;-70
2023/04/24 10:01:06;;;;;;;16.38;11.10;;;10.30;99.90;;;;;;4938576;28;20133;-63
2023/04/24 10:03:34;;;;;;;14.43;11.60;;;10.30;99.90;;;;;;4940540;28;20053;-64
2023/04/24 10:06:08;;;;;;;12.73;10.13;;;10.30;99.90;;;;;;4937898;28;20500;-63
2023/04/24 10:08:37;;;;;;;14.05;10.93;;;10.20;99.90;;;;;;4941051;28;20102;-63
2023/04/24 10:11:04;;;;;;;13.63;11.02;;;10.30;99.90;;;;;;4946906;28;20057;-67
2023/04/24 10:13:32;;;;;;;15.75;10.93;;;10.30;99.90;;;;;;4942282;28;20048;-64
2023/04/24 10:16:01;;;;;;;15.75;11.18;;;10.40;99.90;;;;;;4949691;28;20058;-68
2023/04/24 10:18:29;;;;;;;16.98;10.95;;;10.40;99.90;;;;;;4945692;28;20047;-69
2023/04/24 10:20:57;;;;;;;11.63;9.98;;;10.50;99.90;;;;;;4939842;28;20126;-65
2023/04/24 10:23:25;;;;;;;19.95;12.50;;;10.50;99.90;;;;;;4925844;28;20110;-65
2023/04/24 10:25:53;;;;;;;16.50;10.05;;;10.70;99.90;;;;;;4923486;28;20059;-65
2023/04/24 10:28:21;;;;;;;14.95;11.52;;;10.60;99.90;;;;;;4938516;28;20142;-74
2023/04/24 10:30:49;;;;;;;17.60;11.27;;;10.60;99.90;;;;;;4934475;28;20673;-65
2023/04/24 10:33:17;;;;;;;16.08;10.32;;;10.70;99.90;;;;;;4944006;28;20055;-63
2023/04/24 10:35:48;;;;;;;13.25;11.32;;;10.60;99.90;;;;;;4943340;28;20069;-62
2023/04/24 10:38:27;;;;;;;11.65;9.60;;;10.40;99.90;;;;;;4940145;28;20172;-67
2023/04/24 10:41:15;;;;;;;12.45;10.25;;;10.30;99.90;;;;;;4944373;28;20055;-63
2023/04/24 10:43:43;;;;;;;20.50;12.38;;;10.40;99.90;;;;;;4945683;28;20070;-65
2023/04/24 10:46:10;;;;;;;13.32;11.93;;;10.50;99.90;;;;;;4943230;28;20162;-65
2023/04/24 10:48:43;;;;;;;12.43;10.80;;;10.60;99.90;;;;;;4946276;28;20101;-64
2023/04/24 10:51:14;;;;;;;12.68;11.32;;;10.70;99.90;;;;;;4947845;28;20058;-66
2023/04/24 10:53:40;;;;;;;14.48;10.80;;;10.80;99.90;;;;;;4939866;28;20074;-64
2023/04/24 10:56:13;;;;;;;11.55;10.30;;;10.90;99.90;;;;;;4927799;28;20409;-75
2023/04/24 10:58:46;;;;;;;11.20;10.07;;;11.00;99.90;;;;;;4914969;28;20182;-74
2023/04/24 11:01:26;;;;;;;27.50;13.30;;;11.00;99.90;;;;;;4933625;28;20417;-68
2023/04/24 11:04:04;;;;;;;14.25;10.65;;;11.00;99.90;;;;;;4942607;28;20390;-64
2023/04/24 11:06:37;;;;;;;12.73;11.20;;;11.00;99.90;;;;;;4942960;28;20047;-66
2023/04/24 11:09:05;;;;;;;12.25;10.93;;;10.30;99.90;;;;;;4943849;28;20609;-65
2023/04/24 11:11:34;;;;;;;18.02;11.95;;;10.10;99.90;;;;;;4947201;28;20059;-62
2023/04/24 11:14:02;;;;;;;12.63;10.98;;;9.80;99.90;;;;;;4938047;28;20182;-64
2023/04/24 11:16:44;;;;;;;14.05;11.35;;;9.70;99.90;;;;;;4942735;28;20146;-67
2023/04/24 11:19:17;;;;;;;15.35;11.13;;;9.70;99.90;;;;;;4941034;28;20071;-64
2023/04/24 11:21:53;;;;;;;22.50;12.23;;;9.80;99.90;;;;;;4939191;28;20043;-68
2023/04/24 11:24:23;;;;;;;44.70;15.45;;;10.00;99.90;;;;;;4941649;28;20197;-67
2023/04/24 11:26:58;;;;;;;27.38;11.05;;;10.00;99.90;;;;;;4942407;28;20516;-67
2023/04/24 11:29:45;;;;;;;25.40;11.48;;;10.10;99.90;;;;;;4944229;28;20508;-63
2023/04/24 11:32:22;;;;;;;16.67;11.15;;;10.20;99.90;;;;;;4927869;28;20113;-66
2023/04/24 11:34:52;;;;;;;19.10;10.88;;;10.40;99.90;;;;;;4946291;28;20047;-65
2023/04/24 11:37:19;;;;;;;14.20;10.90;;;10.50;99.90;;;;;;4943993;28;20189;-75
2023/04/24 11:39:46;;;;;;;13.18;10.18;;;10.60;99.90;;;;;;4941499;28;20664;-72
2023/04/24 11:42:15;;;;;;;15.30;10.85;;;10.70;99.90;;;;;;4941603;28;20047;-64
2023/04/24 11:44:43;;;;;;;18.88;10.32;;;10.70;99.90;;;;;;4940225;28;20047;-66
2023/04/24 11:47:09;;;;;;;14.90;10.60;;;10.90;99.90;;;;;;4940691;28;20051;-66
2023/04/24 11:49:37;;;;;;;22.83;10.55;;;11.20;99.90;;;;;;4939768;28;20047;-63
2023/04/24 11:52:04;;;;;;;13.98;9.65;;;11.10;99.90;;;;;;4940105;28;20050;-71
2023/04/24 11:54:31;;;;;;;12.98;9.70;;;11.30;99.90;;;;;;4939593;28;20047;-63
2023/04/24 11:56:59;;;;;;;9.30;7.88;;;11.50;99.90;;;;;;4942900;28;20138;-61
2023/04/24 11:59:26;;;;;;;15.90;10.13;;;11.70;99.90;;;;;;4943733;28;20051;-70
2023/04/24 12:01:53;;;;;;;19.48;10.82;;;11.80;99.90;;;;;;4940942;28;20481;-65
2023/04/24 12:04:20;;;;;;;15.48;9.55;;;11.90;99.90;;;;;;4941611;28;20047;-67
2023/04/24 12:07:03;;;;;;;21.83;10.88;;;11.80;99.90;;;;;;4944557;28;20055;-71
2023/04/24 12:09:48;;;;;;;23.77;9.15;;;11.60;99.90;;;;;;4942961;28;20051;-62
2023/04/24 12:12:18;;;;;;;19.10;8.98;;;11.80;99.90;;;;;;4957536;28;20812;-69
2023/04/24 12:14:49;;;;;;;6.40;5.78;;;12.10;99.90;;;;;;4938190;29;20052;-68
2023/04/24 12:17:17;;;;;;;3.45;3.15;;;12.70;99.90;;;;;;4931864;28;20870;-67
2023/04/24 12:19:48;;;;;;;3.22;2.85;;;13.30;99.90;;;;;;4943766;28;20054;-73
2023/04/24 12:22:15;;;;;;;4.65;3.10;;;13.70;99.90;;;;;;4940552;28;20142;-72
2023/04/24 12:25:02;;;;;;;6.88;3.55;;;13.80;99.90;;;;;;4934637;28;20516;-66
2023/04/24 12:27:31;;;;;;;5.47;3.42;;;13.90;99.90;;;;;;4921292;29;20494;-65
2023/04/24 12:30:00;;;;;;;3.63;3.33;;;13.90;99.90;;;;;;4937855;28;20217;-63
2023/04/24 12:32:27;;;;;;;3.90;3.20;;;13.80;99.90;;;;;;4941364;28;20074;-66
2023/04/24 12:34:55;;;;;;;7.05;3.03;;;13.80;99.90;;;;;;4939445;28;20055;-66
2023/04/24 12:37:26;;;;;;;2.83;2.63;;;13.80;99.90;;;;;;4944891;28;20062;-63
2023/04/24 12:40:03;;;;;;;2.75;2.55;;;13.90;99.90;;;;;;4940350;28;20055;-67
2023/04/24 12:42:31;;;;;;;3.10;2.80;;;14.00;99.90;;;;;;4939668;29;20158;-62
2023/04/24 12:45:05;;;;;;;2.75;1.92;;;14.00;99.90;;;;;;4942473;28;20142;-65
2023/04/24 12:47:33;;;;;;;2.08;1.70;;;14.00;99.90;;;;;;4942035;28;20082;-63
2023/04/24 12:50:00;;;;;;;8.63;2.45;;;14.10;99.90;;;;;;4938407;28;20647;-74